sensor_id;sensor_type;location;lat;lon;timestamp;P1;durP1;ratioP1;P2;durP2;ratioP2
22565;SDS011;11449;51.330;19.378;2023-08-17T00:07:16;32.10;;;10.40;;
22565;SDS011;11449;51.330;19.378;2023-08-17T00:12:30;66.50;;;12.10;;
22565;SDS011;11449;51.330;19.378;2023-08-17T00:17:51;70.20;;;12.10;;
22565;SDS011;11449;51.330;19.378;2023-08-17T00:23:20;50.90;;;10.70;;
22565;SDS011;11449;51.330;19.378;2023-08-17T00:28:31;53.00;;;11.10;;
22565;SDS011;11449;51.330;19.378;2023-08-17T00:33:46;59.20;;;12.30;;
22565;SDS011;11449;51.330;19.378;2023-08-17T00:39:05;49.20;;;10.90;;
22565;SDS011;11449;51.330;19.378;2023-08-17T00:44:33;72.70;;;13.10;;
22565;SDS011;11449;51.330;19.378;2023-08-17T00:49:47;70.30;;;12.70;;
22565;SDS011;11449;51.330;19.378;2023-08-17T00:55:03;53.50;;;11.20;;
22565;SDS011;11449;51.330;19.378;2023-08-17T01:00:42;54.50;;;12.30;;
22565;SDS011;11449;51.330;19.378;2023-08-17T01:06:06;51.40;;;11.40;;
22565;SDS011;11449;51.330;19.378;2023-08-17T01:11:24;52.00;;;12.40;;
22565;SDS011;11449;51.330;19.378;2023-08-17T01:17:13;44.50;;;11.40;;
22565;SDS011;11449;51.330;19.378;2023-08-17T01:22:37;61.20;;;12.10;;
22565;SDS011;11449;51.330;19.378;2023-08-17T01:27:51;51.10;;;11.90;;
22565;SDS011;11449;51.330;19.378;2023-08-17T01:33:14;29.70;;;10.80;;
22565;SDS011;11449;51.330;19.378;2023-08-17T01:38:49;40.10;;;11.80;;
22565;SDS011;11449;51.330;19.378;2023-08-17T01:49:52;35.50;;;11.60;;
22565;SDS011;11449;51.330;19.378;2023-08-17T01:55:00;40.00;;;11.70;;
22565;SDS011;11449;51.330;19.378;2023-08-17T02:00:11;36.10;;;11.40;;
22565;SDS011;11449;51.330;19.378;2023-08-17T02:05:22;39.40;;;11.90;;
22565;SDS011;11449;51.330;19.378;2023-08-17T02:10:50;44.70;;;12.40;;
22565;SDS011;11449;51.330;19.378;2023-08-17T02:15:58;44.50;;;12.70;;
22565;SDS011;11449;51.330;19.378;2023-08-17T02:21:06;39.00;;;12.50;;
22565;SDS011;11449;51.330;19.378;2023-08-17T02:26:19;49.90;;;13.70;;
22565;SDS011;11449;51.330;19.378;2023-08-17T02:31:33;48.90;;;13.50;;
22565;SDS011;11449;51.330;19.378;2023-08-17T02:36:47;82.20;;;18.00;;
22565;SDS011;11449;51.330;19.378;2023-08-17T02:42:00;58.50;;;15.60;;
22565;SDS011;11449;51.330;19.378;2023-08-17T02:47:35;83.60;;;18.20;;
22565;SDS011;11449;51.330;19.378;2023-08-17T02:52:53;64.90;;;16.10;;
22565;SDS011;11449;51.330;19.378;2023-08-17T02:58:01;52.70;;;14.70;;
22565;SDS011;11449;51.330;19.378;2023-08-17T03:03:10;62.80;;;16.30;;
22565;SDS011;11449;51.330;19.378;2023-08-17T03:08:22;68.60;;;16.50;;
22565;SDS011;11449;51.330;19.378;2023-08-17T03:13:30;63.30;;;15.70;;
22565;SDS011;11449;51.330;19.378;2023-08-17T03:18:38;71.30;;;17.90;;
22565;SDS011;11449;51.330;19.378;2023-08-17T03:23:49;66.30;;;16.80;;
22565;SDS011;11449;51.330;19.378;2023-08-17T03:29:07;100.00;;;22.20;;
22565;SDS011;11449;51.330;19.378;2023-08-17T03:34:19;81.50;;;16.00;;
22565;SDS011;11449;51.330;19.378;2023-08-17T03:39:39;87.00;;;17.10;;
22565;SDS011;11449;51.330;19.378;2023-08-17T03:45:20;66.80;;;15.70;;
22565;SDS011;11449;51.330;19.378;2023-08-17T03:50:31;56.20;;;14.30;;
22565;SDS011;11449;51.330;19.378;2023-08-17T04:01:09;63.00;;;15.30;;
22565;SDS011;11449;51.330;19.378;2023-08-17T04:06:37;54.50;;;14.80;;
22565;SDS011;11449;51.330;19.378;2023-08-17T04:12:03;68.80;;;19.50;;
22565;SDS011;11449;51.330;19.378;2023-08-17T04:17:15;64.00;;;16.30;;
22565;SDS011;11449;51.330;19.378;2023-08-17T04:27:47;115.40;;;30.20;;
22565;SDS011;11449;51.330;19.378;2023-08-17T04:33:01;127.90;;;54.40;;
22565;SDS011;11449;51.330;19.378;2023-08-17T04:38:10;95.20;;;41.90;;
22565;SDS011;11449;51.330;19.378;2023-08-17T04:43:21;181.00;;;105.50;;
22565;SDS011;11449;51.330;19.378;2023-08-17T04:48:33;274.80;;;210.40;;
22565;SDS011;11449;51.330;19.378;2023-08-17T04:53:43;218.20;;;135.60;;
22565;SDS011;11449;51.330;19.378;2023-08-17T04:59:04;337.70;;;301.70;;
22565;SDS011;11449;51.330;19.378;2023-08-17T05:04:14;470.00;;;402.90;;
22565;SDS011;11449;51.330;19.378;2023-08-17T05:09:27;220.80;;;156.30;;
22565;SDS011;11449;51.330;19.378;2023-08-17T05:14:40;370.90;;;289.10;;
22565;SDS011;11449;51.330;19.378;2023-08-17T05:19:49;471.90;;;428.00;;
22565;SDS011;11449;51.330;19.378;2023-08-17T05:25:20;173.70;;;89.40;;
22565;SDS011;11449;51.330;19.378;2023-08-17T05:30:45;174.60;;;77.20;;
22565;SDS011;11449;51.330;19.378;2023-08-17T05:35:58;242.90;;;158.10;;
22565;SDS011;11449;51.330;19.378;2023-08-17T05:41:06;141.70;;;80.00;;
22565;SDS011;11449;51.330;19.378;2023-08-17T05:46:14;205.40;;;117.70;;
22565;SDS011;11449;51.330;19.378;2023-08-17T05:51:22;161.50;;;88.10;;
22565;SDS011;11449;51.330;19.378;2023-08-17T05:56:31;137.60;;;61.30;;
22565;SDS011;11449;51.330;19.378;2023-08-17T06:01:42;221.20;;;67.50;;
22565;SDS011;11449;51.330;19.378;2023-08-17T06:06:50;207.50;;;123.00;;
22565;SDS011;11449;51.330;19.378;2023-08-17T06:12:01;116.70;;;44.10;;
22565;SDS011;11449;51.330;19.378;2023-08-17T06:17:11;105.60;;;39.00;;
22565;SDS011;11449;51.330;19.378;2023-08-17T06:22:19;95.90;;;37.80;;
22565;SDS011;11449;51.330;19.378;2023-08-17T06:27:30;73.80;;;22.70;;
22565;SDS011;11449;51.330;19.378;2023-08-17T06:32:38;73.90;;;22.80;;
22565;SDS011;11449;51.330;19.378;2023-08-17T06:37:46;83.00;;;24.00;;
22565;SDS011;11449;51.330;19.378;2023-08-17T06:42:54;67.60;;;22.30;;
22565;SDS011;11449;51.330;19.378;2023-08-17T06:48:03;71.20;;;23.30;;
22565;SDS011;11449;51.330;19.378;2023-08-17T06:53:20;59.20;;;19.40;;
22565;SDS011;11449;51.330;19.378;2023-08-17T06:58:31;73.60;;;20.30;;
22565;SDS011;11449;51.330;19.378;2023-08-17T07:03:44;96.50;;;26.40;;
22565;SDS011;11449;51.330;19.378;2023-08-17T07:08:57;94.50;;;26.90;;
22565;SDS011;11449;51.330;19.378;2023-08-17T07:14:05;79.30;;;26.10;;
22565;SDS011;11449;51.330;19.378;2023-08-17T07:19:19;93.90;;;27.30;;
22565;SDS011;11449;51.330;19.378;2023-08-17T07:24:30;92.70;;;26.80;;
22565;SDS011;11449;51.330;19.378;2023-08-17T07:29:41;136.00;;;30.40;;
22565;SDS011;11449;51.330;19.378;2023-08-17T07:34:52;105.10;;;35.60;;
22565;SDS011;11449;51.330;19.378;2023-08-17T07:40:16;94.30;;;24.50;;
22565;SDS011;11449;51.330;19.378;2023-08-17T07:45:33;72.80;;;22.70;;
22565;SDS011;11449;51.330;19.378;2023-08-17T07:56:17;72.00;;;22.80;;
22565;SDS011;11449;51.330;19.378;2023-08-17T08:01:31;107.10;;;38.20;;
22565;SDS011;11449;51.330;19.378;2023-08-17T08:06:42;111.30;;;31.60;;
22565;SDS011;11449;51.330;19.378;2023-08-17T08:11:50;101.80;;;33.70;;
22565;SDS011;11449;51.330;19.378;2023-08-17T08:17:05;86.20;;;32.30;;
22565;SDS011;11449;51.330;19.378;2023-08-17T08:22:22;85.90;;;31.50;;
22565;SDS011;11449;51.330;19.378;2023-08-17T08:27:34;95.90;;;36.50;;
22565;SDS011;11449;51.330;19.378;2023-08-17T08:32:41;124.70;;;49.10;;
22565;SDS011;11449;51.330;19.378;2023-08-17T08:37:51;107.00;;;36.90;;
22565;SDS011;11449;51.330;19.378;2023-08-17T08:43:15;95.20;;;34.20;;
22565;SDS011;11449;51.330;19.378;2023-08-17T08:48:26;104.10;;;37.30;;
22565;SDS011;11449;51.330;19.378;2023-08-17T08:53:38;141.80;;;59.10;;
22565;SDS011;11449;51.330;19.378;2023-08-17T08:58:49;149.00;;;50.00;;
22565;SDS011;11449;51.330;19.378;2023-08-17T09:03:58;89.90;;;39.30;;
22565;SDS011;11449;51.330;19.378;2023-08-17T09:14:18;120.00;;;41.90;;
22565;SDS011;11449;51.330;19.378;2023-08-17T09:19:29;116.00;;;40.00;;
22565;SDS011;11449;51.330;19.378;2023-08-17T09:24:41;132.00;;;39.40;;
22565;SDS011;11449;51.330;19.378;2023-08-17T09:29:51;136.40;;;59.10;;
22565;SDS011;11449;51.330;19.378;2023-08-17T09:35:08;98.00;;;41.90;;
22565;SDS011;11449;51.330;19.378;2023-08-17T09:40:38;145.50;;;54.80;;
22565;SDS011;11449;51.330;19.378;2023-08-17T09:45:49;115.70;;;32.50;;
22565;SDS011;11449;51.330;19.378;2023-08-17T09:51:03;75.70;;;25.70;;
22565;SDS011;11449;51.330;19.378;2023-08-17T09:56:13;78.90;;;25.00;;
22565;SDS011;11449;51.330;19.378;2023-08-17T10:01:28;101.20;;;30.50;;
22565;SDS011;11449;51.330;19.378;2023-08-17T10:06:41;108.20;;;33.30;;
22565;SDS011;11449;51.330;19.378;2023-08-17T10:11:49;94.40;;;34.40;;
22565;SDS011;11449;51.330;19.378;2023-08-17T10:17:07;83.50;;;33.50;;
22565;SDS011;11449;51.330;19.378;2023-08-17T10:22:29;103.60;;;38.30;;
22565;SDS011;11449;51.330;19.378;2023-08-17T10:27:44;196.40;;;79.70;;
22565;SDS011;11449;51.330;19.378;2023-08-17T10:32:53;97.50;;;32.70;;
22565;SDS011;11449;51.330;19.378;2023-08-17T10:38:07;72.80;;;27.30;;
22565;SDS011;11449;51.330;19.378;2023-08-17T10:43:21;123.60;;;36.90;;
22565;SDS011;11449;51.330;19.378;2023-08-17T10:48:32;94.40;;;31.40;;
22565;SDS011;11449;51.330;19.378;2023-08-17T10:53:44;147.30;;;49.80;;
22565;SDS011;11449;51.330;19.378;2023-08-17T10:58:59;92.10;;;30.60;;
22565;SDS011;11449;51.330;19.378;2023-08-17T11:04:20;148.40;;;40.00;;
22565;SDS011;11449;51.330;19.378;2023-08-17T11:09:34;111.80;;;42.00;;
22565;SDS011;11449;51.330;19.378;2023-08-17T11:14:58;144.10;;;58.60;;
22565;SDS011;11449;51.330;19.378;2023-08-17T11:20:09;133.20;;;57.60;;
22565;SDS011;11449;51.330;19.378;2023-08-17T11:25:20;104.20;;;39.30;;
22565;SDS011;11449;51.330;19.378;2023-08-17T11:30:37;121.20;;;50.20;;
22565;SDS011;11449;51.330;19.378;2023-08-17T11:35:46;135.80;;;52.60;;
22565;SDS011;11449;51.330;19.378;2023-08-17T11:41:06;92.80;;;29.10;;
22565;SDS011;11449;51.330;19.378;2023-08-17T11:46:58;83.00;;;28.60;;
22565;SDS011;11449;51.330;19.378;2023-08-17T11:52:09;75.60;;;28.30;;
22565;SDS011;11449;51.330;19.378;2023-08-17T11:57:30;89.90;;;29.50;;
22565;SDS011;11449;51.330;19.378;2023-08-17T12:02:48;135.30;;;35.50;;
22565;SDS011;11449;51.330;19.378;2023-08-17T12:08:07;74.50;;;23.60;;
22565;SDS011;11449;51.330;19.378;2023-08-17T12:13:34;85.30;;;22.40;;
22565;SDS011;11449;51.330;19.378;2023-08-17T12:18:53;90.30;;;24.70;;
22565;SDS011;11449;51.330;19.378;2023-08-17T12:24:11;77.50;;;23.70;;
22565;SDS011;11449;51.330;19.378;2023-08-17T12:29:24;78.00;;;23.90;;
22565;SDS011;11449;51.330;19.378;2023-08-17T12:34:38;103.10;;;23.10;;
22565;SDS011;11449;51.330;19.378;2023-08-17T12:40:09;80.70;;;21.30;;
22565;SDS011;11449;51.330;19.378;2023-08-17T12:45:58;71.60;;;22.20;;
22565;SDS011;11449;51.330;19.378;2023-08-17T12:51:24;48.40;;;18.20;;
22565;SDS011;11449;51.330;19.378;2023-08-17T12:56:52;63.40;;;18.50;;
22565;SDS011;11449;51.330;19.378;2023-08-17T13:07:51;67.10;;;19.50;;
22565;SDS011;11449;51.330;19.378;2023-08-17T13:13:12;33.00;;;13.80;;
22565;SDS011;11449;51.330;19.378;2023-08-17T13:24:38;85.30;;;17.20;;
22565;SDS011;11449;51.330;19.378;2023-08-17T13:35:33;44.20;;;12.20;;
22565;SDS011;11449;51.330;19.378;2023-08-17T13:41:00;42.20;;;12.40;;
22565;SDS011;11449;51.330;19.378;2023-08-17T13:46:31;32.00;;;11.40;;
22565;SDS011;11449;51.330;19.378;2023-08-17T13:58:06;58.60;;;11.30;;
22565;SDS011;11449;51.330;19.378;2023-08-17T15:10:20;78.70;;;16.00;;
22565;SDS011;11449;51.330;19.378;2023-08-17T15:28:00;73.40;;;16.70;;
22565;SDS011;11449;51.330;19.378;2023-08-17T15:33:41;76.50;;;17.20;;
22565;SDS011;11449;51.330;19.378;2023-08-17T15:45:17;69.90;;;12.70;;
22565;SDS011;11449;51.330;19.378;2023-08-17T16:20:49;80.40;;;15.70;;
22565;SDS011;11449;51.330;19.378;2023-08-17T17:32:43;64.60;;;12.20;;
22565;SDS011;11449;51.330;19.378;2023-08-17T18:08:55;66.70;;;13.70;;
22565;SDS011;11449;51.330;19.378;2023-08-17T18:14:41;96.10;;;15.30;;
22565;SDS011;11449;51.330;19.378;2023-08-17T18:32:22;69.70;;;12.40;;
22565;SDS011;11449;51.330;19.378;2023-08-17T18:37:53;88.80;;;15.10;;
22565;SDS011;11449;51.330;19.378;2023-08-17T19:37:52;85.40;;;13.30;;
22565;SDS011;11449;51.330;19.378;2023-08-17T20:01:30;75.30;;;13.60;;
22565;SDS011;11449;51.330;19.378;2023-08-17T20:07:47;71.10;;;14.30;;
22565;SDS011;11449;51.330;19.378;2023-08-17T20:13:24;63.80;;;12.90;;
22565;SDS011;11449;51.330;19.378;2023-08-17T20:37:03;85.20;;;19.40;;
22565;SDS011;11449;51.330;19.378;2023-08-17T20:42:14;111.80;;;24.60;;
22565;SDS011;11449;51.330;19.378;2023-08-17T20:47:24;101.10;;;26.60;;
22565;SDS011;11449;51.330;19.378;2023-08-17T20:52:35;101.20;;;33.00;;
22565;SDS011;11449;51.330;19.378;2023-08-17T20:57:45;154.40;;;42.00;;
22565;SDS011;11449;51.330;19.378;2023-08-17T21:03:38;129.40;;;35.60;;
22565;SDS011;11449;51.330;19.378;2023-08-17T21:09:23;107.40;;;34.80;;
22565;SDS011;11449;51.330;19.378;2023-08-17T21:14:36;162.70;;;52.50;;
22565;SDS011;11449;51.330;19.378;2023-08-17T21:19:44;130.10;;;41.60;;
22565;SDS011;11449;51.330;19.378;2023-08-17T21:24:52;109.20;;;40.40;;
22565;SDS011;11449;51.330;19.378;2023-08-17T21:30:00;111.00;;;48.20;;
22565;SDS011;11449;51.330;19.378;2023-08-17T21:35:09;167.90;;;91.60;;
22565;SDS011;11449;51.330;19.378;2023-08-17T21:40:22;110.40;;;60.80;;
22565;SDS011;11449;51.330;19.378;2023-08-17T21:45:30;427.20;;;386.40;;
22565;SDS011;11449;51.330;19.378;2023-08-17T21:50:43;159.50;;;96.90;;
22565;SDS011;11449;51.330;19.378;2023-08-17T22:01:33;73.70;;;18.30;;
22565;SDS011;11449;51.330;19.378;2023-08-17T22:06:43;171.30;;;90.50;;
22565;SDS011;11449;51.330;19.378;2023-08-17T22:12:03;186.00;;;135.10;;
22565;SDS011;11449;51.330;19.378;2023-08-17T22:23:05;73.30;;;16.50;;
22565;SDS011;11449;51.330;19.378;2023-08-17T22:28:16;70.50;;;35.80;;
22565;SDS011;11449;51.330;19.378;2023-08-17T22:38:40;139.60;;;72.00;;
22565;SDS011;11449;51.330;19.378;2023-08-17T22:43:56;130.90;;;67.90;;
22565;SDS011;11449;51.330;19.378;2023-08-17T22:49:08;211.40;;;161.10;;
22565;SDS011;11449;51.330;19.378;2023-08-17T22:54:24;178.50;;;129.80;;
22565;SDS011;11449;51.330;19.378;2023-08-17T22:59:49;140.40;;;81.00;;
22565;SDS011;11449;51.330;19.378;2023-08-17T23:05:02;99.70;;;62.70;;
22565;SDS011;11449;51.330;19.378;2023-08-17T23:10:13;148.50;;;101.50;;
22565;SDS011;11449;51.330;19.378;2023-08-17T23:15:30;270.40;;;241.90;;
22565;SDS011;11449;51.330;19.378;2023-08-17T23:20:41;90.10;;;37.50;;
22565;SDS011;11449;51.330;19.378;2023-08-17T23:26:11;63.90;;;15.40;;
22565;SDS011;11449;51.330;19.378;2023-08-17T23:31:34;73.70;;;25.50;;
22565;SDS011;11449;51.330;19.378;2023-08-17T23:36:42;117.10;;;41.10;;
22565;SDS011;11449;51.330;19.378;2023-08-17T23:41:52;79.90;;;27.20;;
22565;SDS011;11449;51.330;19.378;2023-08-17T23:47:03;86.80;;;18.10;;
22565;SDS011;11449;51.330;19.378;2023-08-17T23:52:11;105.60;;;39.40;;
22565;SDS011;11449;51.330;19.378;2023-08-17T23:57:22;107.50;;;36.60;;
